Adams Lake, Indiana
Current Conditions -  °F | °C
As of 8:15 AM on Thursday 23 Oct 2014 (Local Time) from KANQ Reporting Station
Overcast Overcast  
Wind Chill: 28°   Ceiling: 100
Heat Index: 28°   Visibility: 0.25mi
Dew Point:   Wind: 0mph
Humidity: 43%   Direction: NA
Pressure: 30.24"   Gusts: NA
Location:  41.5677°N, 85.3125°W
Report Text: KANQ 231215Z AUTO 00000KT 1/4SM OVC001 M02/M13 A3024 RMK
Loading
Personal Weather Stations






























Interactive Weather Map
Tropical Storm Tracking
New forecast layout! Learn more

10-Day Weather Forecast

Advertisements
Track Severe Weather on mobile